Terminal Aerodrome Forecast
Issued by NWS

Home | Current Version | Previous Version | Graphics & Text | Print | Product List | Glossary On
Versions: 1 2 3 4 5 6 7 8 9 10 11 12 13 14 15 16 17 18
000
FTUS43 KICT 220522
TAFCNU
TAF
KCNU 220522Z 2206/2306 03009KT 6SM -RA OVC035
     FM220900 01011KT 5SM -RA BR OVC025
      TEMPO 2209/2213 3SM SHRA OVC015
     FM221300 36015G22KT 5SM -RA BR OVC020
     FM221600 35016G23KT P6SM SCT025 BKN100
     FM230000 33010KT P6SM SKC=

USA.gov is the U.S. government's official web portal to all federal, state and local government web resources and services.